createdAt,value
2017-03-07T00:00:00.296Z,83.78
2017-03-07T00:00:59.920Z,83.59
2017-03-07T00:02:00.346Z,83.11
2017-03-07T00:02:59.992Z,83.39
2017-03-07T00:04:00.414Z,83.11
2017-03-07T00:05:00.056Z,83.49
2017-03-07T00:06:00.087Z,83.68
2017-03-07T00:07:00.509Z,83.68
2017-03-07T00:08:00.544Z,83.59
2017-03-07T00:09:00.193Z,83.49
2017-03-07T00:10:00.630Z,83.59
2017-03-07T00:11:00.651Z,83.78
2017-03-07T00:12:00.702Z,83.68
2017-03-07T00:13:00.327Z,83.59
2017-03-07T00:14:00.358Z,83.59
2017-03-07T00:15:00.790Z,82.92
2017-03-07T00:16:00.823Z,83.01
2017-03-07T00:17:00.460Z,83.01
2017-03-07T00:18:00.889Z,83.15
2017-03-07T00:19:00.531Z,83.06
2017-03-07T00:20:00.565Z,83.01
2017-03-07T00:21:00.988Z,83.06
2017-03-07T00:22:00.634Z,83.2
2017-03-07T00:23:00.666Z,82.82
2017-03-07T00:24:00.702Z,83.11
2017-03-07T00:25:01.123Z,83.11
2017-03-07T00:26:00.767Z,83.11
2017-03-07T00:27:00.797Z,83.15
2017-03-07T00:28:01.228Z,83.2
2017-03-07T00:29:00.871Z,83.2
2017-03-07T00:30:00.903Z,83.3
2017-03-07T00:31:01.336Z,83.2
2017-03-07T00:32:01.360Z,83.01
2017-03-07T00:33:01.007Z,83.11
2017-03-07T00:34:01.432Z,83.01
2017-03-07T00:35:01.081Z,83.01
2017-03-07T00:36:01.124Z,83.11
2017-03-07T00:37:01.532Z,83.01
2017-03-07T00:38:01.574Z,83.01
2017-03-07T00:39:01.590Z,83.2
2017-03-07T00:40:01.637Z,83.01
2017-03-07T00:41:01.276Z,83.39
2017-03-07T00:42:01.305Z,83.2
2017-03-07T00:43:01.735Z,83.2
2017-03-07T00:44:01.385Z,83.39
2017-03-07T00:45:01.423Z,83.39
2017-03-07T00:46:01.443Z,83.39
2017-03-07T00:47:01.485Z,83.3
2017-03-07T00:48:01.505Z,83.2
2017-03-07T00:49:01.550Z,82.92
2017-03-07T00:50:01.979Z,83.3
2017-03-07T00:51:01.616Z,83.01
2017-03-07T00:52:01.647Z,83.11
2017-03-07T00:53:01.674Z,83.01
2017-03-07T00:54:02.098Z,83.2
2017-03-07T00:55:01.750Z,83.11
2017-03-07T00:56:02.171Z,83.2
2017-03-07T00:57:02.210Z,83.2
2017-03-07T00:58:02.251Z,83.11
2017-03-07T00:59:01.881Z,83.3
2017-03-07T01:00:01.916Z,83.2
2017-03-07T01:01:01.944Z,83.2
2017-03-07T01:02:02.372Z,83.11
2017-03-07T01:03:02.017Z,83.2
2017-03-07T01:04:02.059Z,83.39
2017-03-07T01:05:02.078Z,83.3
2017-03-07T01:06:02.119Z,83.2
2017-03-07T01:07:02.153Z,83.2
2017-03-07T01:08:02.573Z,83.2
2017-03-07T01:09:02.220Z,83.2
2017-03-07T01:10:02.649Z,83.11
2017-03-07T01:11:02.687Z,83.2
2017-03-07T01:12:02.708Z,83.68
2017-03-07T01:13:02.371Z,83.01
2017-03-07T01:14:02.781Z,83.2
2017-03-07T01:15:02.421Z,83.59
2017-03-07T01:16:02.460Z,83.68
2017-03-07T01:17:02.893Z,83.49
2017-03-07T01:18:02.524Z,83.68
2017-03-07T01:19:02.559Z,83.49
2017-03-07T01:20:02.605Z,83.68
2017-03-07T01:21:02.634Z,83.68
2017-03-07T01:22:02.660Z,83.39
2017-03-07T01:23:02.990Z,83.49
2017-03-07T01:24:03.122Z,83.39
2017-03-07T01:25:02.767Z,83.39
2017-03-07T01:26:03.187Z,83.49
2017-03-07T01:27:02.831Z,83.49
2017-03-07T01:28:02.868Z,83.49
2017-03-07T01:29:03.290Z,83.39
2017-03-07T01:30:02.940Z,83.68
2017-03-07T01:31:02.967Z,83.49
2017-03-07T01:32:03.388Z,83.59
2017-03-07T01:33:03.028Z,83.39
2017-03-07T01:34:03.456Z,83.2
2017-03-07T01:35:03.491Z,83.68
2017-03-07T01:36:03.126Z,83.68
2017-03-07T01:37:03.163Z,83.97
2017-03-07T01:38:03.592Z,83.39
2017-03-07T01:39:03.619Z,83.68
2017-03-07T01:40:03.666Z,83.49
2017-03-07T01:41:03.298Z,83.39
2017-03-07T01:42:03.719Z,83.87
2017-03-07T01:43:03.375Z,83.49
2017-03-07T01:44:03.789Z,83.39
2017-03-07T01:45:03.841Z,83.39
2017-03-07T01:46:03.861Z,83.49
2017-03-07T01:47:03.900Z,83.78
2017-03-07T01:48:03.936Z,83.59
2017-03-07T01:49:03.572Z,84.16
2017-03-07T01:50:04.003Z,84.25
2017-03-07T01:51:03.635Z,83.49
2017-03-07T01:52:04.066Z,83.59
2017-03-07T01:53:04.098Z,83.59
2017-03-07T01:54:04.134Z,83.68
2017-03-07T01:55:03.771Z,83.68
2017-03-07T01:56:04.202Z,84.25
2017-03-07T01:57:03.849Z,83.59
2017-03-07T01:58:04.274Z,83.68
2017-03-07T01:59:04.297Z,84.25
2017-03-07T02:00:03.943Z,83.78
2017-03-07T02:01:03.979Z,84.06
2017-03-07T02:02:04.397Z,84.06
2017-03-07T02:03:04.441Z,84.06
2017-03-07T02:04:04.471Z,84.25
2017-03-07T02:05:04.118Z,84.16
2017-03-07T02:06:04.566Z,84.16
2017-03-07T02:07:04.571Z,84.06
2017-03-07T02:08:04.211Z,84.44
2017-03-07T02:09:04.638Z,84.44
2017-03-07T02:10:04.693Z,84.34
2017-03-07T02:11:04.311Z,84.25
2017-03-07T02:12:04.352Z,84.44
2017-03-07T02:13:04.770Z,84.34
2017-03-07T02:14:04.810Z,84.25
2017-03-07T02:15:04.846Z,83.87
2017-03-07T02:16:04.482Z,84.25
2017-03-07T02:17:04.917Z,84.25
2017-03-07T02:18:04.943Z,84.34
2017-03-07T02:19:05.014Z,84.34
2017-03-07T02:20:05.015Z,84.25
2017-03-07T02:21:04.649Z,84.16
2017-03-07T02:22:05.079Z,83.87
2017-03-07T02:23:05.109Z,84.06
2017-03-07T02:24:05.176Z,83.97
2017-03-07T02:25:05.201Z,84.63
2017-03-07T02:26:04.845Z,84.06
2017-03-07T02:37:25.607Z,84.34
2017-03-07T02:38:14.980Z,84.44
2017-03-07T02:39:15.030Z,84.34
2017-03-07T02:40:15.445Z,84.63
2017-03-07T02:41:15.307Z,84.53
2017-03-07T02:42:15.120Z,84.91
2017-03-07T02:43:15.157Z,84.72
2017-03-07T02:44:15.186Z,84.82
2017-03-07T02:45:15.612Z,84.63
2017-03-07T02:46:15.261Z,84.91
2017-03-07T02:47:15.684Z,85.01
2017-03-07T02:48:15.317Z,85.01
2017-03-07T02:49:15.754Z,84.63
2017-03-07T02:50:15.785Z,84.82
2017-03-07T02:51:15.814Z,85.01
2017-03-07T02:52:15.455Z,85.11
2017-03-07T02:53:15.885Z,85.2
2017-03-07T02:54:15.922Z,85.11
2017-03-07T02:55:15.564Z,85.11
2017-03-07T02:56:15.596Z,85.01
2017-03-07T02:57:16.021Z,85.3
2017-03-07T02:58:16.061Z,85.49
2017-03-07T02:59:15.696Z,85.2
2017-03-07T03:00:15.724Z,84.91
2017-03-07T03:01:16.149Z,85.11
2017-03-07T03:02:15.811Z,85.11
2017-03-07T03:03:16.230Z,85.77
2017-03-07T03:04:15.859Z,85.58
2017-03-07T03:05:15.899Z,85.49
2017-03-07T03:06:15.928Z,85.49
2017-03-07T03:07:16.357Z,85.39
2017-03-07T03:08:15.992Z,85.68
2017-03-07T03:09:16.031Z,85.39
2017-03-07T03:10:16.069Z,85.39
2017-03-07T03:11:16.285Z,85.86
2017-03-07T03:12:16.132Z,85.96
2017-03-07T03:13:16.562Z,85.68
2017-03-07T03:14:16.595Z,85.77
2017-03-07T03:15:16.232Z,85.77
2017-03-07T03:16:16.660Z,85.86
2017-03-07T03:17:16.697Z,85.96
2017-03-07T03:18:16.732Z,85.68
2017-03-07T03:19:16.772Z,86.05
2017-03-07T03:20:16.403Z,85.77
2017-03-07T03:21:16.830Z,85.96
2017-03-07T03:22:16.867Z,85.3
2017-03-07T03:23:16.499Z,85.2
2017-03-07T03:24:16.537Z,85.58
2017-03-07T03:25:16.565Z,85.58
2017-03-07T03:26:16.616Z,86.05
2017-03-07T03:27:16.643Z,86.05
2017-03-07T03:28:16.671Z,85.96
2017-03-07T03:29:17.113Z,85.2
2017-03-07T03:30:16.738Z,86.15
2017-03-07T03:31:16.781Z,85.2
2017-03-07T03:32:16.805Z,85.58
2017-03-07T03:33:16.840Z,85.58
2017-03-07T03:34:17.259Z,85.49
2017-03-07T03:35:17.297Z,85.86
2017-03-07T03:36:16.941Z,85.96
2017-03-07T03:37:16.975Z,85.39
2017-03-07T03:38:17.401Z,85.86
2017-03-07T03:39:17.451Z,85.58
2017-03-07T03:40:17.465Z,85.68
2017-03-07T03:41:17.498Z,85.58
2017-03-07T03:42:17.547Z,85.86
2017-03-07T03:43:17.579Z,86.05
2017-03-07T03:44:17.213Z,85.68
2017-03-07T03:45:17.250Z,86.05
2017-03-07T03:46:17.672Z,85.68
2017-03-07T03:47:17.308Z,85.68
2017-03-07T03:48:17.353Z,86.24
2017-03-07T03:49:17.389Z,85.68
2017-03-07T03:50:17.805Z,86.15
2017-03-07T03:51:17.850Z,85.68
2017-03-07T03:52:17.498Z,85.86
2017-03-07T03:53:17.905Z,85.86
2017-03-07T03:54:17.951Z,85.77
2017-03-07T03:55:17.579Z,86.05
2017-03-07T03:56:18.011Z,85.68
2017-03-07T03:57:17.658Z,85.86
2017-03-07T03:58:17.684Z,85.86
2017-03-07T03:59:17.729Z,85.86
2017-03-07T04:00:18.154Z,85.96
2017-03-07T04:01:17.788Z,86.05
2017-03-07T04:02:18.219Z,85.96
2017-03-07T04:03:18.257Z,85.96
2017-03-07T04:04:18.280Z,85.86
2017-03-07T04:05:18.314Z,85.96
2017-03-07T04:06:18.349Z,85.86
2017-03-07T04:07:18.380Z,85.58
2017-03-07T04:08:18.021Z,85.68
2017-03-07T04:09:18.069Z,85.68
2017-03-07T04:10:18.088Z,85.77
2017-03-07T04:11:18.123Z,85.77
2017-03-07T04:12:18.164Z,85.58
2017-03-07T04:13:18.209Z,85.77
2017-03-07T04:14:18.614Z,85.49
2017-03-07T04:15:18.649Z,85.96
2017-03-07T04:16:18.293Z,85.77
2017-03-07T04:17:18.324Z,85.96
2017-03-07T04:18:18.373Z,86.15
2017-03-07T04:19:18.782Z,85.77
2017-03-07T04:20:18.818Z,86.34
2017-03-07T04:21:18.457Z,85.96
2017-03-07T04:22:18.886Z,85.96
2017-03-07T04:23:18.525Z,86.34
2017-03-07T04:24:18.953Z,86.05
2017-03-07T04:25:18.987Z,85.77
2017-03-07T04:26:18.638Z,86.15
2017-03-07T04:27:18.667Z,86.24
2017-03-07T04:28:18.700Z,86.34
2017-03-07T04:29:19.130Z,86.43
2017-03-07T04:30:19.153Z,86.43
2017-03-07T04:31:18.803Z,87.1
2017-03-07T04:32:18.834Z,86.63
2017-03-07T04:33:18.863Z,86.82
2017-03-07T04:34:19.296Z,86.72
2017-03-07T04:35:19.324Z,86.82
2017-03-07T04:36:18.969Z,86.72
2017-03-07T04:37:19.002Z,86.72
2017-03-07T04:38:19.424Z,86.34
2017-03-07T04:39:19.066Z,86.53
2017-03-07T04:40:19.501Z,86.72
2017-03-07T04:41:19.523Z,86.53
2017-03-07T04:42:19.165Z,86.43
2017-03-07T04:43:19.592Z,86.72
2017-03-07T04:44:19.232Z,86.82
2017-03-07T04:45:19.267Z,86.34
2017-03-07T04:46:19.299Z,86.43
2017-03-07T04:47:19.734Z,86.63
2017-03-07T04:48:19.369Z,86.72
2017-03-07T04:49:19.400Z,86.63
2017-03-07T04:50:19.829Z,86.53
2017-03-07T04:51:19.865Z,86.82
2017-03-07T04:52:19.892Z,86.72
2017-03-07T04:53:19.536Z,86.53
2017-03-07T04:54:19.574Z,86.63
2017-03-07T04:55:19.601Z,86.63
2017-03-07T04:56:20.027Z,86.72
2017-03-07T04:57:19.672Z,86.82
2017-03-07T04:58:19.704Z,86.82
2017-03-07T04:59:19.740Z,87.1
2017-03-07T05:00:20.165Z,86.82
2017-03-07T05:01:19.807Z,87.01
2017-03-07T05:02:19.838Z,86.53
2017-03-07T05:03:20.262Z,86.91
2017-03-07T05:04:19.912Z,86.72
2017-03-07T05:05:19.950Z,86.43
2017-03-07T05:06:20.365Z,86.63
2017-03-07T05:07:20.399Z,86.34
2017-03-07T05:08:20.044Z,86.24
2017-03-07T05:09:20.470Z,86.05
2017-03-07T05:10:20.112Z,86.15
2017-03-07T05:11:20.144Z,85.96
2017-03-07T05:12:20.191Z,85.96
2017-03-07T05:13:20.209Z,85.68
2017-03-07T05:14:20.659Z,86.05
2017-03-07T05:15:20.663Z,85.39
2017-03-07T05:16:20.312Z,85.63
2017-03-07T05:17:20.343Z,85.53
2017-03-07T05:18:20.377Z,85.44
2017-03-07T05:19:20.412Z,85.16
2017-03-07T05:20:20.854Z,85.53
2017-03-07T05:21:20.872Z,85.44
2017-03-07T05:22:20.906Z,85.53
2017-03-07T05:23:20.548Z,85.44
2017-03-07T05:24:20.970Z,85.53
2017-03-07T05:25:21.014Z,85.53
2017-03-07T05:26:20.662Z,85.63
2017-03-07T05:27:20.675Z,85.16
2017-03-07T05:28:21.101Z,85.25
2017-03-07T05:29:20.745Z,85.06
2017-03-07T05:30:21.172Z,84.78
2017-03-07T05:31:20.816Z,85.16
2017-03-07T05:32:20.844Z,85.06
2017-03-07T05:33:21.270Z,84.97
2017-03-07T05:34:21.308Z,84.78
2017-03-07T05:35:21.383Z,84.78
2017-03-07T05:36:20.974Z,84.87
2017-03-07T05:37:21.017Z,84.59
2017-03-07T05:38:21.044Z,84.87
2017-03-07T05:39:21.097Z,85.06
2017-03-07T05:40:21.111Z,84.59
2017-03-07T05:41:21.150Z,84.68
2017-03-07T05:42:21.577Z,84.4
2017-03-07T05:43:21.598Z,84.3
2017-03-07T05:44:21.243Z,84.3
2017-03-07T05:45:21.276Z,84.4
2017-03-07T05:46:21.323Z,84.59
2017-03-07T05:47:21.734Z,84.21
2017-03-07T05:48:21.379Z,84.49
2017-03-07T05:49:21.415Z,84.68
2017-03-07T05:50:21.445Z,84.59
2017-03-07T05:51:21.873Z,84.59
2017-03-07T05:52:21.899Z,84.59
2017-03-07T05:53:21.934Z,84.4
2017-03-07T05:54:21.577Z,84.4
2017-03-07T05:55:22.001Z,84.21
2017-03-07T05:56:21.642Z,83.92
2017-03-07T05:57:22.112Z,84.21
2017-03-07T05:58:22.121Z,83.92
2017-03-07T05:59:21.780Z,83.83
2017-03-07T06:00:22.190Z,84.21
2017-03-07T06:01:21.813Z,84.21
2017-03-07T06:02:21.852Z,84.21
2017-03-07T06:03:21.885Z,84.21
2017-03-07T06:04:21.917Z,84.01
2017-03-07T06:05:21.954Z,84.3
2017-03-07T06:06:22.369Z,84.16
2017-03-07T06:07:22.011Z,84.34
2017-03-07T06:08:22.057Z,84.34
2017-03-07T06:09:22.078Z,84.06
2017-03-07T06:10:22.111Z,84.11
2017-03-07T06:11:22.562Z,84.25
2017-03-07T06:12:22.185Z,84.01
2017-03-07T06:13:22.632Z,84.25
2017-03-07T06:14:22.645Z,83.68
2017-03-07T06:15:22.680Z,84.06
2017-03-07T06:16:22.705Z,84.16
2017-03-07T06:17:22.351Z,84.25
2017-03-07T06:18:22.383Z,84.34
2017-03-07T06:19:22.834Z,83.97
2017-03-07T06:20:22.451Z,84.01
2017-03-07T06:21:22.478Z,83.97
2017-03-07T06:22:22.523Z,84.16
2017-03-07T06:23:22.543Z,84.01
2017-03-07T06:24:24.037Z,84.11
2017-03-07T06:25:22.612Z,84.4
2017-03-07T06:26:22.665Z,84.11
2017-03-07T06:27:23.071Z,84.01
2017-03-07T06:28:23.110Z,84.01
2017-03-07T06:29:23.148Z,84.4
2017-03-07T06:30:22.784Z,84.59
2017-03-07T06:31:23.222Z,85.06
2017-03-07T06:32:22.848Z,84.78
2017-03-07T06:33:23.277Z,84.68
2017-03-07T06:34:23.313Z,85.16
2017-03-07T06:35:22.958Z,85.16
2017-03-07T06:36:23.385Z,85.44
2017-03-07T06:37:23.430Z,85.16
2017-03-07T06:38:23.065Z,85.25
2017-03-07T06:39:23.485Z,84.87
2017-03-07T06:40:23.514Z,85.53
2017-03-07T06:41:23.538Z,85.44
2017-03-07T06:42:23.183Z,86.11
2017-03-07T06:43:23.610Z,86.01
2017-03-07T06:44:23.254Z,85.44
2017-03-07T06:45:23.668Z,85.63
2017-03-07T06:46:23.342Z,85.72
2017-03-07T06:47:23.349Z,85.63
2017-03-07T06:48:23.379Z,85.53
2017-03-07T06:49:23.810Z,85.44
2017-03-07T06:50:23.843Z,85.91
2017-03-07T06:51:23.877Z,85.63
2017-03-07T06:52:23.516Z,86.01
2017-03-07T06:53:23.545Z,85.63
2017-03-07T06:54:23.582Z,85.72
2017-03-07T06:55:24.012Z,85.72
2017-03-07T06:56:24.042Z,86.01
2017-03-07T06:57:23.680Z,86.11
2017-03-07T06:58:23.716Z,86.2
2017-03-07T06:59:23.760Z,86.2
2017-03-07T07:00:23.785Z,85.91
2017-03-07T07:01:23.836Z,85.82
2017-03-07T07:02:23.845Z,86.2
2017-03-07T07:03:23.877Z,85.91
2017-03-07T07:04:23.916Z,86.2
2017-03-07T07:05:23.945Z,86.39
2017-03-07T07:06:23.985Z,86.3
2017-03-07T07:07:24.406Z,85.91
2017-03-07T07:08:24.076Z,86.39
2017-03-07T07:09:24.543Z,86.2
2017-03-07T07:10:24.115Z,86.3
2017-03-07T07:11:24.238Z,86.58
2017-03-07T07:12:24.182Z,86.58
2017-03-07T07:13:24.607Z,87.15
2017-03-07T07:14:24.644Z,86.77
2017-03-07T07:15:24.278Z,86.77
2017-03-07T07:16:24.707Z,86.68
2017-03-07T07:17:24.404Z,86.77
2017-03-07T07:18:24.500Z,86.68
2017-03-07T07:19:24.930Z,86.68
2017-03-07T07:20:24.518Z,86.77
2017-03-07T07:21:24.483Z,86.58
2017-03-07T07:22:24.655Z,86.39
2017-03-07T07:23:24.572Z,86.58
2017-03-07T07:24:24.613Z,86.2
2017-03-07T07:25:24.638Z,86.11
2017-03-07T07:26:24.649Z,86.2
2017-03-07T07:27:25.068Z,86.01
2017-03-07T07:28:25.798Z,85.53
2017-03-07T07:29:25.142Z,85.63
2017-03-07T07:30:25.175Z,85.91
2017-03-07T07:31:24.828Z,85.53
2017-03-07T07:32:24.840Z,85.53
2017-03-07T07:33:24.898Z,85.63
2017-03-07T07:34:24.926Z,86.01
2017-03-07T07:35:25.347Z,85.91
2017-03-07T07:36:24.974Z,85.82
2017-03-07T07:37:25.409Z,86.2
2017-03-07T07:38:25.446Z,86.2
2017-03-07T07:39:25.080Z,86.11
2017-03-07T07:40:25.187Z,85.44
2017-03-07T07:41:25.192Z,85.82
2017-03-07T07:42:25.177Z,85.53
2017-03-07T07:43:25.224Z,85.53
2017-03-07T07:44:25.635Z,85.35
2017-03-07T07:45:25.316Z,85.44
2017-03-07T07:46:25.417Z,85.53
2017-03-07T07:47:25.357Z,85.53
2017-03-07T07:48:25.379Z,84.78
2017-03-07T07:49:25.408Z,85.63
2017-03-07T07:50:25.834Z,85.16
2017-03-07T07:51:25.490Z,85.25
2017-03-07T07:52:25.644Z,85.35
2017-03-07T07:53:25.935Z,85.44
2017-03-07T07:54:25.969Z,85.44
2017-03-07T07:55:26.013Z,84.97
2017-03-07T07:56:25.642Z,84.97
2017-03-07T07:57:26.080Z,85.16
2017-03-07T07:58:26.098Z,85.16
2017-03-07T07:59:26.144Z,85.25
2017-03-07T08:00:26.167Z,85.06
2017-03-07T08:01:25.811Z,85.25
2017-03-07T08:02:26.256Z,84.87
2017-03-07T08:03:25.874Z,85.16
2017-03-07T08:04:25.912Z,85.16
2017-03-07T08:05:25.999Z,84.97
2017-03-07T08:06:25.991Z,84.78
2017-03-07T08:07:26.046Z,84.87
2017-03-07T08:08:26.039Z,85.06
2017-03-07T08:09:26.072Z,84.97
2017-03-07T08:10:26.116Z,85.06
2017-03-07T08:11:26.528Z,84.87
2017-03-07T08:12:26.175Z,85.25
2017-03-07T08:13:26.607Z,85.16
2017-03-07T08:14:26.235Z,85.63
2017-03-07T08:15:26.666Z,85.16
2017-03-07T08:16:26.306Z,85.06
2017-03-07T08:17:26.342Z,85.53
2017-03-07T08:18:26.778Z,85.06
2017-03-07T08:19:26.805Z,84.97
2017-03-07T08:20:26.438Z,85.44
2017-03-07T08:21:26.563Z,84.87
2017-03-07T08:22:26.514Z,85.16
2017-03-07T08:23:26.543Z,85.44
2017-03-07T08:24:26.571Z,85.06
2017-03-07T08:25:26.613Z,84.87
2017-03-07T08:26:26.631Z,85.53
2017-03-07T08:27:27.067Z,85.53
2017-03-07T08:28:27.098Z,84.87
2017-03-07T08:29:26.779Z,85.35
2017-03-07T08:30:27.188Z,84.87
2017-03-07T08:31:27.222Z,85.16
2017-03-07T08:32:27.237Z,85.44
2017-03-07T08:33:26.865Z,85.16
2017-03-07T08:34:26.916Z,85.06
2017-03-07T08:35:27.338Z,84.68
2017-03-07T08:36:26.975Z,84.78
2017-03-07T08:37:27.000Z,84.78
2017-03-07T08:38:27.036Z,84.74
2017-03-07T08:39:27.103Z,84.78
2017-03-07T08:40:27.493Z,84.97
2017-03-07T08:41:27.152Z,84.4
2017-03-07T08:42:27.164Z,84.21
2017-03-07T08:43:27.221Z,84.45
2017-03-07T08:44:27.627Z,84.68
2017-03-07T08:45:27.269Z,84.01
2017-03-07T08:46:27.300Z,84.11
2017-03-07T08:47:27.773Z,84.01
2017-03-07T08:48:27.792Z,84.11
2017-03-07T08:49:27.401Z,83.78
2017-03-07T08:50:27.432Z,84.3
2017-03-07T08:51:27.880Z,84.21
2017-03-07T08:52:27.561Z,84.17
2017-03-07T08:53:27.571Z,84.3
2017-03-07T08:54:27.957Z,83.64
2017-03-07T08:55:27.617Z,84.11
2017-03-07T08:56:27.645Z,83.36
2017-03-07T08:57:28.058Z,83.45
2017-03-07T08:58:27.705Z,83.07
2017-03-07T08:59:28.130Z,83.5
2017-03-07T09:00:27.766Z,83.16
2017-03-07T09:01:27.829Z,83.73
2017-03-07T09:02:28.788Z,83.64
2017-03-07T09:03:28.260Z,83.16
2017-03-07T09:04:28.375Z,83.07
2017-03-07T09:05:27.951Z,82.97
2017-03-07T09:06:28.362Z,83.07
2017-03-07T09:07:28.056Z,82.5
2017-03-07T09:08:28.570Z,82.4
2017-03-07T09:09:28.086Z,83.07
2017-03-07T09:10:28.495Z,83.16
2017-03-07T09:11:28.167Z,82.88
2017-03-07T09:12:28.170Z,82.4
2017-03-07T09:13:28.206Z,82.4
2017-03-07T09:14:28.242Z,82.5
2017-03-07T09:15:28.662Z,82.5
2017-03-07T09:16:28.850Z,81.84
2017-03-07T09:17:28.359Z,81.93
2017-03-07T09:18:28.390Z,81.74
2017-03-07T09:19:28.703Z,81.93
2017-03-07T09:20:28.526Z,82.12
2017-03-07T09:21:28.505Z,81.84
2017-03-07T09:22:28.518Z,81.93
2017-03-07T09:23:28.542Z,81.74
2017-03-07T09:24:28.687Z,81.84
2017-03-07T09:25:31.205Z,81.07
2017-03-07T09:26:30.283Z,81.45
2017-03-07T09:27:28.696Z,80.98
2017-03-07T09:28:28.726Z,80.98
2017-03-07T09:29:29.232Z,80.98
2017-03-07T09:30:28.788Z,81.07
2017-03-07T09:31:29.205Z,81.36
2017-03-07T09:32:29.243Z,81.55
2017-03-07T09:33:28.895Z,81.74
2017-03-07T09:34:28.916Z,80.98
2017-03-07T09:35:29.080Z,81.65
2017-03-07T09:36:29.372Z,81.17
2017-03-07T09:37:29.033Z,80.79
2017-03-07T09:38:29.049Z,80.88
2017-03-07T09:39:29.473Z,81.17
2017-03-07T09:40:29.508Z,80.79
2017-03-07T09:41:29.227Z,80.6
2017-03-07T09:42:30.796Z,80.94
2017-03-07T09:43:29.293Z,80.75
2017-03-07T09:44:29.250Z,81.51
2017-03-07T09:45:29.361Z,81.41
2017-03-07T09:46:29.719Z,81.7
2017-03-07T09:47:29.878Z,80.94
2017-03-07T09:48:29.438Z,80.65
2017-03-07T09:49:29.414Z,80.75
2017-03-07T09:50:29.568Z,80.75
2017-03-07T09:51:29.522Z,81.13
2017-03-07T09:52:29.536Z,81.32
2017-03-07T09:53:29.552Z,81.41
2017-03-07T09:54:29.606Z,81.36
2017-03-07T09:55:30.438Z,80.98
2017-03-07T09:56:29.747Z,81.55
2017-03-07T09:57:30.286Z,80.98
2017-03-07T09:58:29.721Z,80.98
2017-03-07T09:59:29.771Z,80.88
2017-03-07T10:00:30.199Z,80.88
2017-03-07T10:01:29.894Z,80.88
2017-03-07T10:02:29.860Z,80.56
2017-03-07T10:03:30.281Z,80.88
2017-03-07T10:04:30.326Z,80.98
2017-03-07T10:05:30.400Z,81.07
2017-03-07T10:06:30.379Z,80.88
2017-03-07T10:07:30.426Z,81.45
2017-03-07T10:08:30.065Z,81.36
2017-03-07T10:09:30.084Z,80.69
2017-03-07T10:10:30.525Z,80.79
2017-03-07T10:11:31.363Z,80.6
2017-03-07T10:12:30.594Z,80.79
2017-03-07T10:13:32.062Z,80.13
2017-03-07T10:14:30.654Z,80.51
2017-03-07T10:15:30.705Z,80.79
2017-03-07T10:16:30.314Z,80.69
2017-03-07T10:17:30.346Z,80.51
2017-03-07T10:18:32.316Z,80.69
2017-03-07T10:19:30.661Z,80.6
2017-03-07T10:20:30.843Z,80.51
2017-03-07T10:21:30.498Z,80.69
2017-03-07T10:22:30.517Z,80.51
2017-03-07T10:23:30.637Z,80.88
2017-03-07T10:24:30.592Z,81.17
2017-03-07T10:25:30.618Z,80.98
2017-03-07T10:26:30.648Z,81.07
2017-03-07T10:27:30.681Z,80.69
2017-03-07T10:28:30.975Z,80.6
2017-03-07T10:29:30.755Z,80.6
2017-03-07T10:30:30.795Z,80.98
2017-03-07T10:31:30.815Z,81.07
2017-03-07T10:32:31.253Z,80.6
2017-03-07T10:33:31.284Z,80.88
2017-03-07T10:34:30.925Z,80.88
2017-03-07T10:35:31.004Z,80.69
2017-03-07T10:36:31.388Z,80.98
2017-03-07T10:37:31.013Z,81.17
2017-03-07T10:38:31.437Z,81.45
2017-03-07T10:39:31.079Z,81.36
2017-03-07T10:40:31.116Z,80.98
2017-03-07T10:41:31.164Z,80.98
2017-03-07T10:42:31.193Z,80.88
2017-03-07T10:43:31.216Z,81.07
2017-03-07T10:44:31.637Z,81.07
2017-03-07T10:45:31.728Z,80.79
2017-03-07T10:46:31.320Z,80.98
2017-03-07T10:47:31.354Z,80.6
2017-03-07T10:48:31.915Z,80.88
2017-03-07T10:49:31.814Z,81.45
2017-03-07T10:50:31.459Z,80.98
2017-03-07T10:51:31.482Z,81.07
2017-03-07T10:52:31.516Z,81.07
2017-03-07T10:53:31.564Z,81.45
2017-03-07T10:54:31.975Z,81.36
2017-03-07T10:55:31.642Z,80.98
2017-03-07T10:56:32.065Z,81.17
2017-03-07T10:57:31.682Z,81.74
2017-03-07T10:58:31.714Z,81.36
2017-03-07T10:59:32.168Z,80.98
2017-03-07T11:00:32.193Z,80.79
2017-03-07T11:01:31.812Z,80.69
2017-03-07T11:02:32.244Z,80.98
2017-03-07T11:03:31.882Z,80.88
2017-03-07T11:04:32.315Z,80.98
2017-03-07T11:05:32.084Z,80.79
2017-03-07T11:06:32.371Z,80.79
2017-03-07T11:07:32.431Z,80.6
2017-03-07T11:08:32.070Z,80.88
2017-03-07T11:09:32.116Z,80.88
2017-03-07T11:10:32.517Z,81.07
2017-03-07T11:11:32.563Z,81.17
2017-03-07T11:12:32.180Z,80.98
2017-03-07T11:13:32.615Z,80.98
2017-03-07T11:14:32.641Z,80.98
2017-03-07T11:15:32.700Z,80.79
2017-03-07T11:16:32.314Z,80.98
2017-03-07T11:17:32.738Z,80.69
2017-03-07T11:18:32.778Z,80.69
2017-03-07T11:19:32.416Z,80.98
2017-03-07T11:20:32.456Z,81.17
2017-03-07T11:21:32.876Z,81.07
2017-03-07T11:22:32.904Z,80.79
2017-03-07T11:23:32.548Z,80.88
2017-03-07T11:24:32.976Z,80.79
2017-03-07T11:25:33.008Z,80.88
2017-03-07T11:26:33.048Z,80.69
2017-03-07T11:27:33.074Z,81.74
2017-03-07T11:28:33.106Z,81.17
2017-03-07T11:29:33.143Z,81.23
2017-03-07T11:30:33.177Z,81.41
2017-03-07T11:31:32.814Z,81.51
2017-03-07T11:32:32.923Z,81.7
2017-03-07T11:33:32.880Z,81.51
2017-03-07T11:34:33.305Z,81.98
2017-03-07T11:35:33.341Z,81.98
2017-03-07T11:36:33.376Z,81.98
2017-03-07T11:37:33.402Z,81.79
2017-03-07T11:38:33.468Z,81.79
2017-03-07T11:39:33.477Z,81.88
2017-03-07T11:40:33.505Z,82.46
2017-03-07T11:41:33.535Z,82.27
2017-03-07T11:42:33.572Z,82.27
2017-03-07T11:43:33.213Z,82.46
2017-03-07T11:44:33.638Z,82.36
2017-03-07T11:45:33.275Z,82.55
2017-03-07T11:46:33.321Z,82.36
2017-03-07T11:47:33.738Z,82.55
2017-03-07T11:48:33.765Z,82.46
2017-03-07T11:49:33.409Z,82.17
2017-03-07T11:50:33.464Z,82.46
2017-03-07T11:51:33.477Z,82.08
2017-03-07T11:52:33.519Z,82.74
2017-03-07T11:53:33.958Z,82.84
2017-03-07T11:54:33.572Z,82.65
2017-03-07T11:55:34.023Z,82.46
2017-03-07T11:56:33.640Z,82.84
2017-03-07T11:57:34.085Z,82.46
2017-03-07T11:58:34.117Z,82.93
2017-03-07T11:59:34.160Z,83.31
2017-03-07T12:00:34.178Z,83.22
2017-03-07T12:01:33.804Z,82.93
2017-03-07T12:02:33.838Z,83.03
2017-03-07T12:03:33.884Z,83.12
2017-03-07T12:04:33.899Z,83.12
2017-03-07T12:05:34.325Z,83.12
2017-03-07T12:06:34.377Z,82.93
2017-03-07T12:07:34.019Z,82.93
2017-03-07T12:08:34.660Z,83.12
2017-03-07T12:09:34.065Z,83.12
2017-03-07T12:10:34.505Z,82.93
2017-03-07T12:11:34.523Z,83.12
2017-03-07T12:12:34.163Z,83.12
2017-03-07T12:13:34.198Z,83.4
2017-03-07T12:14:34.232Z,83.59
2017-03-07T12:15:34.672Z,83.4
2017-03-07T12:16:34.299Z,83.31
2017-03-07T12:17:34.337Z,83.5
2017-03-07T12:18:34.754Z,83.31
2017-03-07T12:19:34.809Z,83.4
2017-03-07T12:20:34.431Z,83.31
2017-03-07T12:21:34.464Z,83.59
2017-03-07T12:22:34.499Z,83.31
2017-03-07T12:23:35.001Z,83.69
2017-03-07T12:24:34.564Z,83.59
2017-03-07T12:25:34.994Z,84.59
2017-03-07T12:26:35.020Z,84.07
2017-03-07T12:27:35.121Z,83.5
2017-03-07T12:28:35.085Z,83.83
2017-03-07T12:29:35.127Z,83.88
2017-03-07T12:30:34.761Z,83.73
2017-03-07T12:31:34.793Z,83.59
2017-03-07T12:32:35.217Z,84.11
2017-03-07T12:33:34.858Z,84.21
2017-03-07T12:34:35.287Z,84.3
2017-03-07T12:35:34.934Z,84.01
2017-03-07T12:36:34.976Z,83.36
2017-03-07T12:37:34.992Z,83.4
2017-03-07T12:38:35.045Z,83.54
2017-03-07T12:39:35.451Z,83.64
2017-03-07T12:40:35.089Z,83.54
2017-03-07T12:41:35.187Z,83.83
2017-03-07T12:42:35.167Z,83.54
2017-03-07T12:43:35.589Z,83.64
2017-03-07T12:44:35.618Z,83.54
2017-03-07T12:45:35.259Z,83.36
2017-03-07T12:46:35.289Z,83.54
2017-03-07T12:47:35.326Z,83.36
2017-03-07T12:48:35.360Z,83.73
2017-03-07T12:49:35.819Z,83.83
2017-03-07T12:50:35.816Z,83.16
2017-03-07T12:51:35.456Z,83.54
2017-03-07T12:52:35.490Z,83.16
2017-03-07T12:53:35.923Z,83.54
2017-03-07T12:54:35.557Z,83.64
2017-03-07T12:55:35.982Z,83.16
2017-03-07T12:56:35.629Z,83.26
2017-03-07T12:57:35.666Z,83.07
2017-03-07T12:58:35.698Z,83.64
2017-03-07T12:59:35.731Z,83.16
2017-03-07T13:00:35.774Z,83.26
2017-03-07T13:01:35.868Z,83.16
2017-03-07T13:02:36.221Z,82.78
2017-03-07T13:03:35.888Z,83.16
2017-03-07T13:04:36.281Z,83.26
2017-03-07T13:05:35.928Z,83.39